createdAt,value
2022-11-16T00:01:09.276Z,8.90
2022-11-16T00:03:36.473Z,8.84
2022-11-16T00:06:05.587Z,8.82
2022-11-16T00:08:35.252Z,8.71
2022-11-16T00:11:14.183Z,8.64
2022-11-16T00:13:42.825Z,8.69
2022-11-16T00:16:15.891Z,8.65
2022-11-16T00:18:43.890Z,8.59
2022-11-16T00:21:11.270Z,8.77
2022-11-16T00:23:38.901Z,8.63
2022-11-16T00:26:07.794Z,8.74
2022-11-16T00:28:35.339Z,8.58
2022-11-16T00:31:04.528Z,8.64
2022-11-16T00:33:32.063Z,8.55
2022-11-16T00:36:01.438Z,8.66
2022-11-16T00:38:28.658Z,8.53
2022-11-16T00:40:55.325Z,8.49
2022-11-16T00:43:22.177Z,8.57
2022-11-16T00:45:49.003Z,8.61
2022-11-16T00:48:15.933Z,8.07
2022-11-16T00:50:44.878Z,8.54
2022-11-16T00:53:14.739Z,8.50
2022-11-16T00:55:41.580Z,8.34
2022-11-16T00:58:10.026Z,8.43
2022-11-16T01:00:39.107Z,8.41
2022-11-16T01:03:06.342Z,8.58
2022-11-16T01:05:33.486Z,8.65
2022-11-16T01:08:00.771Z,8.56
2022-11-16T01:10:28.463Z,8.67
2022-11-16T01:12:55.711Z,8.47
2022-11-16T01:15:25.547Z,8.66
2022-11-16T01:17:53.959Z,8.72
2022-11-16T01:20:24.397Z,8.66
2022-11-16T01:22:51.544Z,8.52
2022-11-16T01:25:18.886Z,8.54
2022-11-16T01:27:45.922Z,8.71
2022-11-16T01:30:19.539Z,8.63
2022-11-16T01:32:57.437Z,8.70
2022-11-16T01:35:24.418Z,8.61
2022-11-16T01:37:51.597Z,8.57
2022-11-16T01:40:18.906Z,8.58
2022-11-16T01:42:46.126Z,8.34
2022-11-16T01:45:21.687Z,8.64
2022-11-16T01:47:53.548Z,8.62
2022-11-16T01:50:23.715Z,8.51
2022-11-16T01:52:57.305Z,8.62
2022-11-16T01:55:28.849Z,8.48
2022-11-16T01:58:18.207Z,8.66
2022-11-16T02:00:49.188Z,8.49
2022-11-16T02:03:40.435Z,8.47
2022-11-16T02:06:41.695Z,8.59
2022-11-16T02:09:55.207Z,8.56
2022-11-16T02:12:38.051Z,8.56
2022-11-16T02:15:30.268Z,8.66
2022-11-16T02:18:48.913Z,8.72
2022-11-16T02:21:41.161Z,8.73
2022-11-16T02:24:35.709Z,8.79
2022-11-16T02:27:14.657Z,8.68
2022-11-16T02:29:45.727Z,8.48
2022-11-16T02:32:15.261Z,8.59
2022-11-16T02:34:53.272Z,8.81
2022-11-16T02:37:24.261Z,8.84
2022-11-16T02:39:58.350Z,8.76
2022-11-16T02:42:32.937Z,8.97
2022-11-16T02:45:02.505Z,8.78
2022-11-16T02:47:32.926Z,8.56
2022-11-16T02:50:04.604Z,8.42
2022-11-16T02:52:31.438Z,8.74
2022-11-16T02:54:58.207Z,8.80
2022-11-16T02:57:53.699Z,8.81
2022-11-16T03:00:27.155Z,8.45
2022-11-16T03:03:21.935Z,8.75
2022-11-16T03:05:53.438Z,8.27
2022-11-16T03:08:39.686Z,8.65
2022-11-16T03:11:30.077Z,8.62
2022-11-16T03:14:08.231Z,8.69
2022-11-16T03:16:40.193Z,8.63
2022-11-16T03:19:10.827Z,8.87
2022-11-16T03:21:52.209Z,8.86
2022-11-16T03:24:20.681Z,8.86
2022-11-16T03:26:59.811Z,8.94
2022-11-16T03:29:31.837Z,8.83
2022-11-16T03:32:17.986Z,9.00
2022-11-16T03:34:55.183Z,8.94
2022-11-16T03:37:24.956Z,8.86
2022-11-16T03:39:54.029Z,8.86
2022-11-16T03:42:24.355Z,8.79
2022-11-16T03:44:52.138Z,8.75
2022-11-16T03:47:18.894Z,8.86
2022-11-16T03:49:46.695Z,8.75
2022-11-16T03:52:17.358Z,8.93
2022-11-16T03:54:44.697Z,8.89
2022-11-16T03:57:15.660Z,8.75
2022-11-16T03:59:45.380Z,8.74
2022-11-16T04:02:12.242Z,8.51
2022-11-16T04:04:57.938Z,8.16
2022-11-16T04:07:43.385Z,7.22
2022-11-16T04:10:29.891Z,7.74
2022-11-16T04:13:16.672Z,8.26
2022-11-16T04:16:02.431Z,8.05
2022-11-16T04:18:48.265Z,8.36
2022-11-16T04:21:59.325Z,8.38
2022-11-16T04:24:35.064Z,8.68
2022-11-16T04:27:24.278Z,8.44
2022-11-16T04:29:51.904Z,8.29
2022-11-16T04:32:37.481Z,8.59
2022-11-16T04:35:22.862Z,8.77
2022-11-16T04:37:49.803Z,8.56
2022-11-16T04:40:24.459Z,8.92
2022-11-16T04:42:52.875Z,8.63
2022-11-16T04:45:39.205Z,8.72
2022-11-16T04:48:07.011Z,8.63
2022-11-16T04:50:36.870Z,8.88
2022-11-16T04:53:04.798Z,8.60
2022-11-16T04:55:37.330Z,8.84
2022-11-16T04:58:05.060Z,8.61
2022-11-16T05:00:32.456Z,8.79
2022-11-16T05:03:01.763Z,8.51
2022-11-16T05:05:29.827Z,8.81
2022-11-16T05:07:58.247Z,8.79
2022-11-16T05:10:28.417Z,8.84
2022-11-16T05:12:55.674Z,8.81
2022-11-16T05:15:23.884Z,8.82
2022-11-16T05:17:51.548Z,8.56
2022-11-16T05:20:40.850Z,8.42
2022-11-16T05:23:28.253Z,8.33
2022-11-16T05:25:57.148Z,8.13
2022-11-16T05:28:23.916Z,8.80
2022-11-16T05:30:51.942Z,8.94
2022-11-16T05:33:22.756Z,9.20
2022-11-16T05:35:51.554Z,9.04
2022-11-16T05:38:19.913Z,9.10
2022-11-16T05:40:51.744Z,8.80
2022-11-16T05:43:18.529Z,8.63
2022-11-16T05:45:56.314Z,9.18
2022-11-16T05:48:23.345Z,8.89
2022-11-16T05:50:50.117Z,9.08
2022-11-16T05:53:23.299Z,9.26
2022-11-16T05:55:50.378Z,9.01
2022-11-16T05:58:18.675Z,9.00
2022-11-16T06:00:49.219Z,9.16
2022-11-16T06:03:17.542Z,9.36
2022-11-16T06:05:44.386Z,9.22
2022-11-16T06:08:13.854Z,9.12
2022-11-16T06:10:41.045Z,9.16
2022-11-16T06:13:08.313Z,9.41
2022-11-16T06:15:40.109Z,9.48
2022-11-16T06:18:09.416Z,9.19
2022-11-16T06:20:38.472Z,9.40
2022-11-16T06:23:06.690Z,9.53
2022-11-16T06:25:34.513Z,9.40
2022-11-16T06:28:06.617Z,9.43
2022-11-16T06:30:35.123Z,9.36
2022-11-16T06:33:03.228Z,9.14
2022-11-16T06:35:30.253Z,9.00
2022-11-16T06:37:58.253Z,8.95
2022-11-16T06:40:25.896Z,9.39
2022-11-16T06:42:53.180Z,9.08
2022-11-16T06:45:19.834Z,9.32
2022-11-16T06:47:51.099Z,9.39
2022-11-16T06:50:19.361Z,9.47
2022-11-16T06:52:48.661Z,9.80
2022-11-16T06:55:16.788Z,9.66
2022-11-16T06:57:46.354Z,9.50
2022-11-16T07:00:13.948Z,9.79
2022-11-16T07:02:41.155Z,9.62
2022-11-16T07:05:13.208Z,9.52
2022-11-16T07:07:41.054Z,9.70
2022-11-16T07:10:08.552Z,9.71
2022-11-16T07:12:36.206Z,9.45
2022-11-16T07:15:03.697Z,9.66
2022-11-16T07:17:33.875Z,9.74
2022-11-16T07:20:00.845Z,9.79
2022-11-16T07:22:28.808Z,10.08
2022-11-16T07:24:55.550Z,9.92
2022-11-16T07:27:23.165Z,9.64
2022-11-16T07:29:51.654Z,9.86
2022-11-16T07:32:40.062Z,9.65
2022-11-16T07:35:23.144Z,9.82
2022-11-16T07:37:50.572Z,9.66
2022-11-16T07:40:19.413Z,10.10
2022-11-16T07:42:46.704Z,10.09
2022-11-16T07:45:38.099Z,10.22
2022-11-16T07:48:07.734Z,10.25
2022-11-16T07:50:53.166Z,10.39
2022-11-16T07:53:20.929Z,10.45
2022-11-16T07:55:54.687Z,10.25
2022-11-16T07:58:23.934Z,10.16
2022-11-16T08:00:52.895Z,10.29
2022-11-16T08:03:24.617Z,10.33
2022-11-16T08:06:00.107Z,10.22
2022-11-16T08:08:27.264Z,10.11
2022-11-16T08:11:06.848Z,10.48
2022-11-16T08:13:35.837Z,10.42
2022-11-16T08:16:18.905Z,10.68
2022-11-16T08:18:48.675Z,10.41
2022-11-16T08:21:17.936Z,10.79
2022-11-16T08:23:45.907Z,10.34
2022-11-16T08:26:16.607Z,10.84
2022-11-16T08:28:53.939Z,10.62
2022-11-16T08:31:27.930Z,10.61
2022-11-16T08:34:01.874Z,10.56
2022-11-16T08:36:30.588Z,10.46
2022-11-16T08:38:58.124Z,10.67
2022-11-16T08:41:25.198Z,10.90
2022-11-16T08:43:53.525Z,11.17
2022-11-16T08:46:22.852Z,10.79
2022-11-16T08:48:57.082Z,11.00
2022-11-16T08:54:10.446Z,10.86
2022-11-16T08:56:40.675Z,11.06
2022-11-16T08:59:08.569Z,10.68
2022-11-16T09:01:40.047Z,11.11
2022-11-16T09:04:08.085Z,11.18
2022-11-16T09:06:36.157Z,11.27
2022-11-16T09:09:03.068Z,11.09
2022-11-16T09:11:30.002Z,11.40
2022-11-16T09:13:59.016Z,11.66
2022-11-16T09:16:28.213Z,11.58
2022-11-16T09:18:55.831Z,11.74
2022-11-16T09:21:23.847Z,11.73
2022-11-16T09:23:51.532Z,12.12
2022-11-16T09:26:22.942Z,12.20
2022-11-16T09:28:58.137Z,12.60
2022-11-16T09:31:27.509Z,12.11
2022-11-16T09:33:58.412Z,12.28
2022-11-16T09:36:27.139Z,12.18
2022-11-16T09:39:25.781Z,12.52
2022-11-16T09:41:48.681Z,12.78
2022-11-16T09:44:52.937Z,12.35
2022-11-16T09:47:23.900Z,12.18
2022-11-16T09:50:01.533Z,12.62
2022-11-16T09:55:52.169Z,12.63
2022-11-16T09:58:42.011Z,12.98
2022-11-16T10:01:49.316Z,13.21
2022-11-16T10:04:47.143Z,12.77
2022-11-16T10:07:27.927Z,13.36
2022-11-16T10:09:56.145Z,13.23
2022-11-16T10:12:38.096Z,13.62
2022-11-16T10:15:19.886Z,13.72
2022-11-16T10:17:49.657Z,13.36
2022-11-16T10:20:40.970Z,14.20
2022-11-16T10:23:21.343Z,14.10
2022-11-16T10:25:55.289Z,14.17
2022-11-16T10:28:52.287Z,14.50
2022-11-16T10:31:28.308Z,14.80
2022-11-16T10:33:58.970Z,14.40
2022-11-16T10:36:30.864Z,14.85
2022-11-16T10:39:00.504Z,14.72
2022-11-16T10:41:41.926Z,14.29
2022-11-16T10:44:22.093Z,14.78
2022-11-16T10:47:04.944Z,14.32
2022-11-16T10:49:40.513Z,14.52
2022-11-16T10:52:07.411Z,14.12
2022-11-16T10:54:34.306Z,14.68
2022-11-16T10:57:08.961Z,14.64
2022-11-16T10:59:53.306Z,14.73
2022-11-16T11:02:20.114Z,15.25
2022-11-16T11:05:01.046Z,14.68
2022-11-16T11:07:42.303Z,15.02
2022-11-16T11:10:30.792Z,15.63
2022-11-16T11:13:19.686Z,15.53
2022-11-16T11:15:48.071Z,15.78
2022-11-16T11:18:25.423Z,15.79
2022-11-16T11:21:15.274Z,15.96
2022-11-16T11:23:53.940Z,15.90
2022-11-16T11:26:38.623Z,15.98
2022-11-16T11:29:20.711Z,15.63
2022-11-16T11:31:52.015Z,16.27
2022-11-16T11:34:25.507Z,15.93
2022-11-16T11:36:58.055Z,16.17
2022-11-16T11:42:17.912Z,16.03
2022-11-16T11:44:54.622Z,16.03
2022-11-16T11:48:02.121Z,16.04
2022-11-16T11:50:40.445Z,16.24
2022-11-16T11:53:10.458Z,16.32
2022-11-16T11:55:37.753Z,16.10
2022-11-16T11:58:06.170Z,15.81
2022-11-16T12:01:00.872Z,16.35
2022-11-16T12:03:42.235Z,15.82
2022-11-16T12:06:22.701Z,16.06
2022-11-16T12:09:23.315Z,16.43
2022-11-16T12:11:58.941Z,16.06
2022-11-16T12:14:56.073Z,15.60
2022-11-16T12:17:22.919Z,15.97
2022-11-16T12:20:16.157Z,16.21
2022-11-16T12:22:48.618Z,15.83
2022-11-16T12:25:57.017Z,16.09
2022-11-16T12:28:41.213Z,15.82
2022-11-16T12:31:33.060Z,16.08
2022-11-16T12:34:23.155Z,15.84
2022-11-16T12:37:05.900Z,16.06
2022-11-16T12:39:44.790Z,16.13
2022-11-16T12:42:30.468Z,16.30
2022-11-16T12:45:19.291Z,15.96
2022-11-16T12:48:26.647Z,15.86
2022-11-16T12:51:14.883Z,16.38
2022-11-16T12:54:02.611Z,16.38
2022-11-16T12:56:37.957Z,17.32
2022-11-16T12:59:17.332Z,17.26
2022-11-16T13:02:17.294Z,16.74
2022-11-16T13:04:51.112Z,16.84
2022-11-16T13:07:24.965Z,17.30
2022-11-16T13:10:03.041Z,17.12
2022-11-16T13:12:31.497Z,16.78
2022-11-16T13:15:02.209Z,16.05
2022-11-16T13:17:34.376Z,16.08
2022-11-16T13:20:27.850Z,16.22
2022-11-16T13:23:05.098Z,16.52
2022-11-16T13:25:39.245Z,16.66
2022-11-16T13:28:33.519Z,16.60
2022-11-16T13:31:08.838Z,16.47
2022-11-16T13:33:51.194Z,16.27
2022-11-16T13:36:46.330Z,16.12
2022-11-16T13:39:22.841Z,16.12
2022-11-16T13:42:05.027Z,16.12
2022-11-16T13:44:36.248Z,16.10
2022-11-16T13:47:07.148Z,16.47
2022-11-16T13:49:41.029Z,16.12
2022-11-16T13:52:23.274Z,16.33
2022-11-16T13:54:55.719Z,16.29
2022-11-16T13:57:27.098Z,16.42
2022-11-16T14:00:10.615Z,16.15
2022-11-16T14:02:42.087Z,16.37
2022-11-16T14:05:39.526Z,16.27
2022-11-16T14:08:24.450Z,16.18
2022-11-16T14:10:51.371Z,16.29
2022-11-16T14:13:30.332Z,16.10
2022-11-16T14:16:15.570Z,16.32
2022-11-16T14:18:43.840Z,16.35
2022-11-16T14:21:10.502Z,16.18
2022-11-16T14:24:09.886Z,16.38
2022-11-16T14:27:10.628Z,16.20
2022-11-16T14:29:46.518Z,16.01
2022-11-16T14:32:41.300Z,16.15
2022-11-16T14:35:36.744Z,16.03
2022-11-16T14:38:17.894Z,16.02
2022-11-16T14:40:54.917Z,16.15
2022-11-16T14:43:49.961Z,16.06
2022-11-16T14:46:27.028Z,16.08
2022-11-16T14:48:59.258Z,16.13
2022-11-16T14:51:34.627Z,16.15
2022-11-16T14:54:15.979Z,16.00
2022-11-16T14:57:03.221Z,16.10
2022-11-16T14:59:32.009Z,15.91
2022-11-16T15:02:03.890Z,15.89
2022-11-16T15:04:31.699Z,15.92
2022-11-16T15:07:03.142Z,15.91
2022-11-16T15:09:39.500Z,15.81
2022-11-16T15:12:31.780Z,15.64
2022-11-16T15:15:04.278Z,15.77
2022-11-16T15:17:33.426Z,15.74
2022-11-16T15:20:03.595Z,15.83
2022-11-16T15:22:32.576Z,15.90
2022-11-16T15:25:01.019Z,15.64
2022-11-16T15:27:27.949Z,15.81
2022-11-16T15:29:55.130Z,15.93
2022-11-16T15:32:21.798Z,15.48
2022-11-16T15:34:53.435Z,15.87
2022-11-16T15:37:28.202Z,15.96
2022-11-16T15:39:56.389Z,15.94
2022-11-16T15:42:25.677Z,15.35
2022-11-16T15:44:53.070Z,15.52
2022-11-16T15:47:21.593Z,15.66
2022-11-16T15:49:52.932Z,15.62
2022-11-16T15:52:50.471Z,15.65
2022-11-16T15:55:40.014Z,15.74
2022-11-16T15:58:26.902Z,15.73
2022-11-16T16:00:55.208Z,15.77
2022-11-16T16:03:24.915Z,15.77
2022-11-16T16:05:53.087Z,15.50
2022-11-16T16:08:31.959Z,15.68
2022-11-16T16:10:59.457Z,15.74
2022-11-16T16:13:32.505Z,15.16
2022-11-16T16:16:12.919Z,15.34
2022-11-16T16:18:44.342Z,15.63
2022-11-16T16:21:12.830Z,15.50
2022-11-16T16:23:53.875Z,15.68
2022-11-16T16:26:21.754Z,15.56
2022-11-16T16:28:50.315Z,15.76
2022-11-16T16:31:19.220Z,15.56
2022-11-16T16:33:46.585Z,15.57
2022-11-16T16:36:13.755Z,15.32
2022-11-16T16:38:40.594Z,15.33
2022-11-16T16:41:08.113Z,15.30
2022-11-16T16:43:35.517Z,15.27
2022-11-16T16:46:04.072Z,14.71
2022-11-16T16:48:31.071Z,14.44
2022-11-16T16:50:57.793Z,15.06
2022-11-16T16:53:24.606Z,14.95
2022-11-16T16:55:51.760Z,15.06
2022-11-16T16:58:18.579Z,14.83
2022-11-16T17:00:46.558Z,14.51
2022-11-16T17:03:20.463Z,14.96
2022-11-16T17:05:47.314Z,14.73
2022-11-16T17:08:13.982Z,14.35
2022-11-16T17:10:40.763Z,14.53
2022-11-16T17:13:10.098Z,14.60
2022-11-16T17:15:36.774Z,14.59
2022-11-16T17:18:04.643Z,14.98
2022-11-16T17:20:32.890Z,14.96
2022-11-16T17:23:00.593Z,13.90
2022-11-16T17:25:27.728Z,13.77
2022-11-16T17:27:55.058Z,14.22
2022-11-16T17:30:21.990Z,14.39
2022-11-16T17:32:48.840Z,14.00
2022-11-16T17:35:15.862Z,14.38
2022-11-16T17:37:42.620Z,14.77
2022-11-16T17:40:12.502Z,14.68
2022-11-16T17:42:39.322Z,14.51
2022-11-16T17:45:06.678Z,14.56
2022-11-16T17:47:33.886Z,14.22
2022-11-16T17:50:01.046Z,14.01
2022-11-16T17:52:27.831Z,14.57
2022-11-16T17:54:54.627Z,14.20
2022-11-16T17:57:21.378Z,13.38
2022-11-16T17:59:48.185Z,13.90
2022-11-16T18:02:14.903Z,14.35
2022-11-16T18:04:43.609Z,14.48
2022-11-16T18:07:12.627Z,14.57
2022-11-16T18:09:39.268Z,14.56
2022-11-16T18:12:06.143Z,14.74
2022-11-16T18:14:32.926Z,14.75
2022-11-16T18:16:59.680Z,14.69
2022-11-16T18:19:26.359Z,14.26
2022-11-16T18:21:53.121Z,14.46
2022-11-16T18:24:19.968Z,14.25
2022-11-16T18:26:46.666Z,14.51
2022-11-16T18:29:16.100Z,14.53
2022-11-16T18:31:43.227Z,14.31
2022-11-16T18:34:13.561Z,14.47
2022-11-16T18:36:40.402Z,14.25
2022-11-16T18:39:07.430Z,14.61
2022-11-16T18:41:34.347Z,14.63
2022-11-16T18:44:02.269Z,14.20
2022-11-16T18:46:31.539Z,14.47
2022-11-16T18:48:59.120Z,14.43
2022-11-16T18:51:27.694Z,14.54
2022-11-16T18:53:55.307Z,14.82
2022-11-16T18:56:22.939Z,14.95
2022-11-16T18:58:52.070Z,15.06
2022-11-16T19:01:22.300Z,14.84
2022-11-16T19:03:49.843Z,14.46
2022-11-16T19:06:17.839Z,14.68
2022-11-16T19:08:53.719Z,14.93
2022-11-16T19:11:23.412Z,15.13
2022-11-16T19:13:53.869Z,14.96
2022-11-16T19:16:21.039Z,14.57
2022-11-16T19:18:47.868Z,14.56
2022-11-16T19:21:16.946Z,14.91
2022-11-16T19:23:48.875Z,14.33
2022-11-16T19:26:18.451Z,14.77
2022-11-16T19:28:46.952Z,15.01
2022-11-16T19:31:19.985Z,14.55
2022-11-16T19:33:47.171Z,13.81
2022-11-16T19:36:18.878Z,14.43
2022-11-16T19:38:47.490Z,14.78
2022-11-16T19:41:16.503Z,14.92
2022-11-16T19:43:43.192Z,14.58
2022-11-16T19:46:13.448Z,14.58
2022-11-16T19:48:40.162Z,14.74
2022-11-16T19:51:16.139Z,14.99
2022-11-16T19:53:43.358Z,14.97
2022-11-16T19:56:12.247Z,14.59
2022-11-16T19:58:39.220Z,14.60
2022-11-16T20:01:18.418Z,14.26
2022-11-16T20:03:46.201Z,14.33
2022-11-16T20:06:18.066Z,14.75
2022-11-16T20:08:53.976Z,14.61
2022-11-16T20:11:22.116Z,14.07
2022-11-16T20:13:50.470Z,13.62
2022-11-16T20:16:19.271Z,13.59
2022-11-16T20:18:46.587Z,13.92
2022-11-16T20:21:30.941Z,14.53
2022-11-16T20:24:03.027Z,14.03
2022-11-16T20:26:34.936Z,14.04
2022-11-16T20:29:02.087Z,14.42
2022-11-16T20:31:31.000Z,14.68
2022-11-16T20:34:00.235Z,14.84
2022-11-16T20:36:29.699Z,14.65
2022-11-16T20:38:57.758Z,14.64
2022-11-16T20:41:29.923Z,14.35
2022-11-16T20:43:58.717Z,13.55
2022-11-16T20:46:28.083Z,13.55
2022-11-16T20:48:57.049Z,14.34
2022-11-16T20:51:23.813Z,14.61
2022-11-16T20:53:52.431Z,14.64
2022-11-16T20:56:20.432Z,14.96
2022-11-16T20:58:48.755Z,15.02
2022-11-16T21:01:31.884Z,15.02
2022-11-16T21:04:04.082Z,14.76
2022-11-16T21:06:32.833Z,14.49
2022-11-16T21:09:00.034Z,14.20
2022-11-16T21:11:55.806Z,14.34
2022-11-16T21:14:23.066Z,14.50
2022-11-16T21:16:49.834Z,14.95
2022-11-16T21:19:19.897Z,14.80
2022-11-16T21:21:46.611Z,14.55
2022-11-16T21:24:13.471Z,14.73
2022-11-16T21:26:40.275Z,14.73
2022-11-16T21:29:07.136Z,14.59
2022-11-16T21:31:36.325Z,14.50
2022-11-16T21:34:04.691Z,14.81
2022-11-16T21:36:32.709Z,14.93
2022-11-16T21:39:00.270Z,14.98
2022-11-16T21:41:27.783Z,14.87
2022-11-16T21:43:55.023Z,14.87
2022-11-16T21:46:25.002Z,15.03
2022-11-16T21:48:53.813Z,15.18
2022-11-16T21:51:22.896Z,15.34
2022-11-16T21:53:49.644Z,15.33
2022-11-16T21:56:21.850Z,14.75
2022-11-16T21:58:50.465Z,14.84
2022-11-16T22:01:17.465Z,14.84
2022-11-16T22:03:44.934Z,14.83
2022-11-16T22:06:34.434Z,14.46
2022-11-16T22:09:01.404Z,13.53
2022-11-16T22:11:28.191Z,14.05
2022-11-16T22:13:55.098Z,14.58
2022-11-16T22:16:23.495Z,14.44
2022-11-16T22:18:50.930Z,14.63
2022-11-16T22:21:18.043Z,14.93
2022-11-16T22:23:44.931Z,14.06
2022-11-16T22:26:13.430Z,14.05
2022-11-16T22:28:40.859Z,14.51
2022-11-16T22:31:15.080Z,14.82
2022-11-16T22:33:42.250Z,14.94
2022-11-16T22:36:10.552Z,15.10
2022-11-16T22:38:38.236Z,15.18
2022-11-16T22:41:05.405Z,15.05
2022-11-16T22:43:33.159Z,14.87
2022-11-16T22:46:05.394Z,14.86
2022-11-16T22:48:34.518Z,14.85
2022-11-16T22:51:03.407Z,14.76
2022-11-16T22:53:30.150Z,14.86
2022-11-16T22:56:07.866Z,14.64
2022-11-16T22:58:35.958Z,14.85
2022-11-16T23:01:03.689Z,14.91
2022-11-16T23:03:30.658Z,14.76
2022-11-16T23:05:57.519Z,14.77
2022-11-16T23:08:27.343Z,14.94
2022-11-16T23:11:23.710Z,14.87
2022-11-16T23:14:11.714Z,14.89
2022-11-16T23:16:39.885Z,14.93
2022-11-16T23:19:28.140Z,14.64
2022-11-16T23:22:14.479Z,14.41
2022-11-16T23:24:59.815Z,14.44
2022-11-16T23:27:33.624Z,14.88
2022-11-16T23:30:05.448Z,14.76
2022-11-16T23:32:36.142Z,13.76
2022-11-16T23:35:03.218Z,13.11
2022-11-16T23:37:29.917Z,14.18
2022-11-16T23:39:56.587Z,14.25
2022-11-16T23:42:42.068Z,14.35
2022-11-16T23:45:09.231Z,14.17
2022-11-16T23:47:36.015Z,14.13
2022-11-16T23:50:03.166Z,14.41
2022-11-16T23:52:29.871Z,14.67
2022-11-16T23:54:56.524Z,14.68
2022-11-16T23:57:23.563Z,14.37
2022-11-16T23:59:50.265Z,14.34
